createdAt,value
2023-03-18T00:02:02.208Z,17.00
2023-03-18T00:04:47.909Z,16.80
2023-03-18T00:07:33.562Z,16.80
2023-03-18T00:10:20.538Z,16.80
2023-03-18T00:13:06.103Z,16.70
2023-03-18T00:15:52.009Z,16.70
2023-03-18T00:18:40.244Z,16.50
2023-03-18T00:21:28.358Z,16.60
2023-03-18T00:24:15.460Z,16.40
2023-03-18T00:27:00.699Z,16.50
2023-03-18T00:29:46.605Z,16.60
2023-03-18T00:32:32.717Z,16.50
2023-03-18T00:35:19.585Z,16.50
2023-03-18T00:38:07.448Z,16.50
2023-03-18T00:40:53.773Z,16.60
2023-03-18T00:43:46.838Z,16.60
2023-03-18T00:46:33.587Z,16.70
2023-03-18T00:49:19.964Z,16.80
2023-03-18T00:52:07.389Z,16.80
2023-03-18T00:54:53.225Z,16.90
2023-03-18T00:57:38.663Z,16.90
2023-03-18T01:00:26.273Z,16.80
2023-03-18T01:03:11.593Z,16.60
2023-03-18T01:05:57.499Z,16.50
2023-03-18T01:08:44.339Z,16.50
2023-03-18T01:11:30.066Z,16.50
2023-03-18T01:14:16.556Z,16.50
2023-03-18T01:17:02.404Z,16.50
2023-03-18T01:19:48.812Z,16.50
2023-03-18T01:22:34.622Z,16.30
2023-03-18T01:25:22.310Z,16.40
2023-03-18T01:28:11.995Z,16.50
2023-03-18T01:30:58.556Z,16.60
2023-03-18T01:33:44.422Z,16.60
2023-03-18T01:36:29.940Z,16.60
2023-03-18T01:39:24.669Z,16.50
2023-03-18T01:42:12.610Z,16.60
2023-03-18T01:45:19.536Z,16.40
2023-03-18T01:48:15.049Z,16.50
2023-03-18T01:51:05.298Z,16.40
2023-03-18T01:53:52.549Z,16.30
2023-03-18T01:56:40.928Z,16.20
2023-03-18T01:59:30.251Z,16.20
2023-03-18T02:02:17.194Z,16.10
2023-03-18T02:05:06.685Z,15.90
2023-03-18T02:07:53.184Z,16.00
2023-03-18T02:10:41.422Z,16.00
2023-03-18T02:13:31.851Z,15.90
2023-03-18T02:16:24.080Z,16.00
2023-03-18T02:19:22.585Z,15.90
2023-03-18T02:22:17.382Z,15.90
2023-03-18T02:25:18.924Z,15.90
2023-03-18T02:28:10.041Z,16.10
2023-03-18T02:30:59.360Z,15.90
2023-03-18T02:33:46.413Z,15.90
2023-03-18T02:36:33.339Z,15.80
2023-03-18T02:39:22.630Z,15.70
2023-03-18T02:42:14.040Z,15.60
2023-03-18T02:45:17.291Z,15.60
2023-03-18T02:48:20.981Z,15.60
2023-03-18T02:51:09.029Z,15.50
2023-03-18T02:53:58.880Z,15.60
2023-03-18T02:56:46.081Z,15.70
2023-03-18T02:59:32.568Z,15.80
2023-03-18T03:02:20.362Z,15.80
2023-03-18T03:05:09.611Z,15.70
2023-03-18T03:07:55.932Z,15.80
2023-03-18T03:10:44.209Z,15.80
2023-03-18T03:13:29.980Z,15.90
2023-03-18T03:16:21.210Z,15.90
2023-03-18T03:19:08.470Z,15.70
2023-03-18T03:21:55.087Z,15.80
2023-03-18T03:24:45.065Z,15.80
2023-03-18T03:27:33.065Z,16.00
2023-03-18T03:30:19.784Z,15.80
2023-03-18T03:33:08.446Z,15.70
2023-03-18T03:35:55.998Z,15.90
2023-03-18T03:38:42.368Z,15.80
2023-03-18T03:41:28.453Z,15.80
2023-03-18T03:44:14.452Z,15.80
2023-03-18T03:47:00.254Z,15.80
2023-03-18T03:49:46.104Z,15.70
2023-03-18T03:52:34.823Z,15.60
2023-03-18T03:55:22.664Z,15.40
2023-03-18T03:58:09.469Z,15.40
2023-03-18T04:00:55.971Z,15.10
2023-03-18T04:03:42.389Z,15.10
2023-03-18T04:06:28.356Z,15.00
2023-03-18T04:09:21.431Z,15.00
2023-03-18T04:12:08.408Z,14.90
2023-03-18T04:14:54.564Z,14.90
2023-03-18T04:17:41.795Z,14.80
2023-03-18T04:20:29.861Z,14.70
2023-03-18T04:23:17.831Z,14.80
2023-03-18T04:26:05.876Z,14.90
2023-03-18T04:28:52.694Z,15.00
2023-03-18T04:31:41.111Z,14.90
2023-03-18T04:34:27.468Z,14.70
2023-03-18T04:37:14.603Z,14.80
2023-03-18T04:40:05.591Z,14.70
2023-03-18T04:42:53.350Z,14.60
2023-03-18T04:45:43.790Z,14.30
2023-03-18T04:48:31.305Z,14.30
2023-03-18T04:51:20.762Z,14.50
2023-03-18T04:54:06.641Z,14.80
2023-03-18T04:56:52.855Z,14.70
2023-03-18T04:59:41.846Z,14.60
2023-03-18T05:02:28.361Z,14.70
2023-03-18T05:05:15.136Z,14.80
2023-03-18T05:08:07.553Z,14.70
2023-03-18T05:10:54.334Z,14.80
2023-03-18T05:13:41.626Z,14.70
2023-03-18T05:16:30.840Z,14.80
2023-03-18T05:19:18.486Z,14.90
2023-03-18T05:22:17.702Z,14.80
2023-03-18T05:25:07.049Z,14.80
2023-03-18T05:27:54.774Z,14.90
2023-03-18T05:30:49.898Z,14.70
2023-03-18T05:33:38.732Z,14.90
2023-03-18T05:36:24.522Z,14.80
2023-03-18T05:39:19.075Z,14.80
2023-03-18T05:42:05.542Z,14.70
2023-03-18T05:44:52.738Z,14.80
2023-03-18T05:47:40.909Z,14.50
2023-03-18T05:50:33.839Z,14.80
2023-03-18T05:53:22.251Z,14.80
2023-03-18T05:56:14.823Z,14.70
2023-03-18T05:59:03.431Z,14.90
2023-03-18T06:02:00.532Z,15.30
2023-03-18T06:04:46.150Z,15.30
2023-03-18T06:07:34.455Z,15.20
2023-03-18T06:10:20.467Z,15.00
2023-03-18T06:13:06.593Z,15.20
2023-03-18T06:15:56.246Z,15.30
2023-03-18T06:18:42.360Z,15.10
2023-03-18T06:21:29.326Z,15.40
2023-03-18T06:24:16.221Z,15.20
2023-03-18T06:27:02.469Z,15.40
2023-03-18T06:29:48.904Z,15.50
2023-03-18T06:32:37.162Z,15.60
2023-03-18T06:35:23.222Z,15.80
2023-03-18T06:38:10.775Z,15.80
2023-03-18T06:40:58.662Z,16.20
2023-03-18T06:43:47.764Z,16.30
2023-03-18T06:46:33.481Z,16.20
2023-03-18T06:49:21.759Z,16.30
2023-03-18T06:52:14.171Z,16.10
2023-03-18T06:55:02.729Z,16.30
2023-03-18T06:57:49.580Z,16.50
2023-03-18T07:00:41.657Z,16.60
2023-03-18T07:03:32.909Z,16.70
2023-03-18T07:06:18.854Z,16.90
2023-03-18T07:09:04.266Z,17.20
2023-03-18T07:11:50.116Z,17.80
2023-03-18T07:14:41.309Z,19.20
2023-03-18T07:17:27.106Z,20.50
2023-03-18T07:20:13.311Z,21.50
2023-03-18T07:22:59.501Z,21.20
2023-03-18T07:25:46.916Z,21.10
2023-03-18T07:28:32.804Z,20.50
2023-03-18T07:31:20.566Z,20.50
2023-03-18T07:34:05.975Z,20.20
2023-03-18T07:36:51.931Z,19.70
2023-03-18T07:39:38.767Z,19.20
2023-03-18T07:42:24.213Z,19.30
2023-03-18T07:45:09.854Z,19.20
2023-03-18T07:47:58.226Z,19.20
2023-03-18T07:50:43.576Z,19.10
2023-03-18T07:53:29.317Z,19.10
2023-03-18T07:56:14.881Z,19.20
2023-03-18T07:59:00.539Z,19.40
2023-03-18T08:01:46.366Z,19.50
2023-03-18T08:04:33.416Z,19.70
2023-03-18T08:07:19.373Z,19.90
2023-03-18T08:10:05.897Z,19.80
2023-03-18T08:12:53.830Z,20.20
2023-03-18T08:15:39.627Z,20.70
2023-03-18T08:18:25.394Z,20.70
2023-03-18T08:21:12.345Z,20.80
2023-03-18T08:23:58.099Z,20.80
2023-03-18T08:26:43.777Z,20.80
2023-03-18T08:29:29.819Z,21.10
2023-03-18T08:32:15.361Z,21.40
2023-03-18T08:35:04.590Z,22.00
2023-03-18T08:37:51.601Z,22.60
2023-03-18T08:40:37.139Z,22.40
2023-03-18T08:43:22.469Z,22.80
2023-03-18T08:46:08.008Z,22.60
2023-03-18T08:48:54.346Z,23.00
2023-03-18T08:51:39.982Z,23.50
2023-03-18T08:54:28.718Z,23.80
2023-03-18T08:57:14.086Z,23.60
2023-03-18T08:59:59.757Z,23.60
2023-03-18T09:02:45.421Z,23.80
2023-03-18T09:05:31.724Z,23.80
2023-03-18T09:08:16.967Z,24.20
2023-03-18T09:11:04.009Z,24.20
2023-03-18T09:13:49.794Z,24.50
2023-03-18T09:16:36.366Z,24.90
2023-03-18T09:19:22.143Z,25.30
2023-03-18T09:22:08.903Z,25.00
2023-03-18T09:24:54.344Z,24.40
2023-03-18T09:27:42.591Z,24.50
2023-03-18T09:30:28.507Z,25.10
2023-03-18T09:33:14.172Z,26.10
2023-03-18T09:35:59.597Z,26.90
2023-03-18T09:38:44.918Z,28.40
2023-03-18T09:41:38.393Z,29.80
2023-03-18T09:44:25.934Z,30.30
2023-03-18T09:47:18.632Z,30.70
2023-03-18T09:50:12.833Z,30.70
2023-03-18T09:53:03.608Z,31.10
2023-03-18T09:55:50.639Z,30.70
2023-03-18T09:58:43.682Z,29.50
2023-03-18T10:01:32.413Z,27.90
2023-03-18T10:04:21.367Z,27.20
2023-03-18T10:07:12.040Z,27.20
2023-03-18T10:10:00.732Z,27.40
2023-03-18T10:12:49.567Z,27.10
2023-03-18T10:15:37.349Z,26.30
2023-03-18T10:18:27.977Z,26.00
2023-03-18T10:21:18.322Z,26.00
2023-03-18T10:24:12.663Z,26.20
2023-03-18T10:27:03.414Z,25.60
2023-03-18T10:29:51.172Z,26.30
2023-03-18T10:32:49.918Z,27.40
2023-03-18T10:35:42.298Z,27.60
2023-03-18T10:38:30.678Z,27.50
2023-03-18T10:41:18.571Z,27.00
2023-03-18T10:44:07.263Z,27.10
2023-03-18T10:46:57.254Z,27.70
2023-03-18T10:49:48.061Z,27.50
2023-03-18T10:52:38.065Z,27.70
2023-03-18T10:55:25.588Z,27.60
2023-03-18T10:58:15.257Z,27.40
2023-03-18T11:01:01.305Z,28.00
2023-03-18T11:03:50.370Z,27.90
2023-03-18T11:06:41.597Z,27.10
2023-03-18T11:09:31.080Z,26.50
2023-03-18T11:12:19.479Z,26.10
2023-03-18T11:15:06.888Z,25.60
2023-03-18T11:17:52.679Z,25.80
2023-03-18T11:20:49.694Z,26.00
2023-03-18T11:23:55.956Z,26.20
2023-03-18T11:26:47.394Z,27.20
2023-03-18T11:29:34.189Z,28.70
2023-03-18T11:32:23.665Z,30.10
2023-03-18T11:35:18.176Z,30.30
2023-03-18T11:38:04.609Z,29.70
2023-03-18T11:40:49.912Z,28.70
2023-03-18T11:43:37.930Z,27.80
2023-03-18T11:46:24.249Z,27.00
2023-03-18T11:49:13.104Z,26.50
2023-03-18T11:52:16.610Z,25.60
2023-03-18T11:55:08.880Z,25.00
2023-03-18T11:58:08.661Z,24.60
2023-03-18T12:00:59.152Z,24.30
2023-03-18T12:03:58.655Z,23.70
2023-03-18T12:06:49.811Z,23.30
2023-03-18T12:09:38.983Z,22.90
2023-03-18T12:12:34.708Z,23.40
2023-03-18T12:15:23.953Z,23.70
2023-03-18T12:18:17.638Z,23.80
2023-03-18T12:21:08.848Z,24.10
2023-03-18T12:23:59.756Z,24.00
2023-03-18T12:26:51.710Z,24.20
2023-03-18T12:29:49.762Z,24.30
2023-03-18T12:32:40.321Z,24.30
2023-03-18T12:35:36.452Z,23.90
2023-03-18T12:38:41.041Z,24.00
2023-03-18T12:41:31.405Z,24.00
2023-03-18T12:44:23.659Z,23.50
2023-03-18T12:47:11.278Z,23.30
2023-03-18T12:49:58.704Z,23.20
2023-03-18T12:52:48.103Z,23.20
2023-03-18T12:55:36.649Z,23.00
2023-03-18T12:58:23.201Z,23.10
2023-03-18T13:01:17.889Z,23.30
2023-03-18T13:04:05.912Z,23.00
2023-03-18T13:06:54.101Z,22.90
2023-03-18T13:09:43.702Z,22.90
2023-03-18T13:12:31.478Z,22.80
2023-03-18T13:15:20.881Z,22.60
2023-03-18T13:18:13.499Z,22.80
2023-03-18T13:20:59.708Z,22.60
2023-03-18T13:23:59.431Z,21.80
2023-03-18T13:26:57.048Z,21.60
2023-03-18T13:29:50.627Z,21.10
2023-03-18T13:32:47.793Z,20.20
2023-03-18T13:35:44.859Z,19.90
2023-03-18T13:38:41.728Z,19.80
2023-03-18T13:41:33.513Z,20.00
2023-03-18T13:44:24.824Z,19.90
2023-03-18T13:47:16.001Z,19.90
2023-03-18T13:50:04.409Z,20.00
2023-03-18T13:52:53.943Z,20.00
2023-03-18T13:55:42.945Z,20.20
2023-03-18T13:58:30.000Z,20.30
2023-03-18T14:01:32.957Z,20.30
2023-03-18T14:04:31.153Z,20.00
2023-03-18T14:07:18.400Z,20.40
2023-03-18T14:10:22.589Z,20.40
2023-03-18T14:13:26.322Z,20.80
2023-03-18T14:16:12.625Z,21.30
2023-03-18T14:19:00.499Z,21.70
2023-03-18T14:21:52.382Z,21.90
2023-03-18T14:24:37.731Z,22.00
2023-03-18T14:27:23.403Z,22.60
2023-03-18T14:30:36.907Z,22.90
2023-03-18T14:33:30.912Z,23.10
2023-03-18T14:36:16.710Z,23.30
2023-03-18T14:39:03.800Z,23.20
2023-03-18T14:41:51.585Z,22.80
2023-03-18T14:44:40.805Z,22.50
2023-03-18T14:47:38.678Z,22.30
2023-03-18T14:50:32.815Z,22.50
2023-03-18T14:53:22.342Z,22.60
2023-03-18T14:56:17.476Z,22.60
2023-03-18T14:59:02.925Z,22.40
2023-03-18T15:01:50.720Z,22.30
2023-03-18T15:04:36.377Z,21.90
2023-03-18T15:07:27.791Z,21.30
2023-03-18T15:10:17.207Z,21.30
2023-03-18T15:13:07.734Z,21.10
2023-03-18T15:15:56.306Z,21.00
2023-03-18T15:18:43.625Z,20.80
2023-03-18T15:21:30.460Z,20.70
2023-03-18T15:24:19.273Z,20.00
2023-03-18T15:27:06.026Z,19.90
2023-03-18T15:29:54.054Z,19.60
2023-03-18T15:32:43.878Z,19.50
2023-03-18T15:35:31.599Z,19.40
2023-03-18T15:38:19.333Z,19.30
2023-03-18T15:41:06.099Z,19.10
2023-03-18T15:43:51.926Z,19.30
2023-03-18T15:46:45.810Z,19.10
2023-03-18T15:49:31.564Z,19.10
2023-03-18T15:52:17.402Z,19.00
2023-03-18T15:55:04.602Z,18.90
2023-03-18T15:57:52.723Z,19.10
2023-03-18T16:00:40.512Z,19.30
2023-03-18T16:03:29.211Z,19.10
2023-03-18T16:06:14.722Z,18.80
2023-03-18T16:09:00.549Z,19.00
2023-03-18T16:11:48.461Z,19.10
2023-03-18T16:14:37.284Z,19.10
2023-03-18T16:17:22.991Z,19.30
2023-03-18T16:20:14.855Z,19.00
2023-03-18T16:23:00.525Z,18.90
2023-03-18T16:25:47.676Z,19.00
2023-03-18T16:28:33.807Z,19.00
2023-03-18T16:31:19.459Z,18.80
2023-03-18T16:34:06.792Z,19.00
2023-03-18T16:36:53.902Z,19.00
2023-03-18T16:39:39.842Z,18.90
2023-03-18T16:42:25.627Z,18.70
2023-03-18T16:45:14.062Z,18.70
2023-03-18T16:48:01.740Z,19.00
2023-03-18T16:50:48.820Z,19.10
2023-03-18T16:53:36.324Z,19.20
2023-03-18T16:56:24.105Z,19.10
2023-03-18T16:59:11.312Z,19.30
2023-03-18T17:01:56.833Z,19.20
2023-03-18T17:04:42.723Z,19.10
2023-03-18T17:07:29.610Z,19.30
2023-03-18T17:10:17.731Z,19.30
2023-03-18T17:13:09.165Z,19.00
2023-03-18T17:15:55.421Z,18.90
2023-03-18T17:18:41.634Z,19.10
2023-03-18T17:21:28.566Z,18.90
2023-03-18T17:24:14.480Z,19.10
2023-03-18T17:27:01.138Z,19.00
2023-03-18T17:29:46.879Z,18.80
2023-03-18T17:32:32.294Z,18.70
2023-03-18T17:35:19.307Z,18.70
2023-03-18T17:38:05.815Z,18.60
2023-03-18T17:40:51.604Z,18.20
2023-03-18T17:43:38.744Z,18.30
2023-03-18T17:46:24.420Z,18.20
2023-03-18T17:49:10.419Z,18.20
2023-03-18T17:51:56.390Z,18.00
2023-03-18T17:54:42.528Z,18.00
2023-03-18T17:57:28.118Z,17.60
2023-03-18T18:00:17.344Z,17.80
2023-03-18T18:03:04.059Z,17.80
2023-03-18T18:05:50.042Z,17.80
2023-03-18T18:08:36.131Z,17.90
2023-03-18T18:11:23.981Z,18.00
2023-03-18T18:14:14.762Z,18.00
2023-03-18T18:17:03.957Z,17.90
2023-03-18T18:19:52.959Z,17.90
2023-03-18T18:22:46.614Z,17.80
2023-03-18T18:25:32.776Z,17.40
2023-03-18T18:28:19.686Z,17.40
2023-03-18T18:31:06.393Z,17.50
2023-03-18T18:33:55.738Z,17.80
2023-03-18T18:36:41.342Z,17.50
2023-03-18T18:39:26.749Z,17.10
2023-03-18T18:42:12.437Z,17.00
2023-03-18T18:44:58.179Z,17.10
2023-03-18T18:47:44.111Z,17.30
2023-03-18T18:50:35.524Z,17.40
2023-03-18T18:53:23.035Z,17.60
2023-03-18T18:56:13.461Z,17.90
2023-03-18T18:58:59.227Z,17.70
2023-03-18T19:01:45.035Z,17.70
2023-03-18T19:04:30.526Z,17.80
2023-03-18T19:07:18.164Z,17.60
2023-03-18T19:10:04.199Z,17.60
2023-03-18T19:12:49.435Z,17.70
2023-03-18T19:15:35.247Z,17.60
2023-03-18T19:18:22.424Z,17.80
2023-03-18T19:21:08.172Z,17.40
2023-03-18T19:23:55.216Z,17.70
2023-03-18T19:26:40.680Z,17.80
2023-03-18T19:29:26.637Z,17.70
2023-03-18T19:32:15.277Z,17.30
2023-03-18T19:35:00.545Z,16.60
2023-03-18T19:37:47.281Z,16.90
2023-03-18T19:40:34.278Z,16.90
2023-03-18T19:43:21.641Z,16.90
2023-03-18T19:46:12.382Z,16.80
2023-03-18T19:48:58.175Z,16.80
2023-03-18T19:51:43.772Z,16.80
2023-03-18T19:54:31.577Z,16.90
2023-03-18T19:57:19.631Z,17.10
2023-03-18T20:00:16.547Z,17.40
2023-03-18T20:03:02.667Z,17.70
2023-03-18T20:05:48.819Z,17.60
2023-03-18T20:08:34.684Z,17.40
2023-03-18T20:11:21.106Z,17.20
2023-03-18T20:14:18.481Z,17.00
2023-03-18T20:17:24.325Z,17.10
2023-03-18T20:20:12.386Z,17.30
2023-03-18T20:22:59.556Z,17.20
2023-03-18T20:25:46.461Z,16.80
2023-03-18T20:28:33.876Z,16.60
2023-03-18T20:31:21.046Z,16.20
2023-03-18T20:34:06.661Z,16.30
2023-03-18T20:36:52.086Z,16.30
2023-03-18T20:39:37.791Z,16.10
2023-03-18T20:42:23.265Z,15.90
2023-03-18T20:45:15.408Z,15.70
2023-03-18T20:48:03.647Z,15.80
2023-03-18T20:50:50.393Z,15.90
2023-03-18T20:53:36.503Z,15.90
2023-03-18T20:56:23.028Z,15.90
2023-03-18T20:59:09.876Z,16.00
2023-03-18T21:01:55.464Z,16.10
2023-03-18T21:04:43.795Z,16.20
2023-03-18T21:07:29.639Z,16.10
2023-03-18T21:10:17.206Z,16.00
2023-03-18T21:13:09.704Z,15.90
2023-03-18T21:15:55.234Z,15.70
2023-03-18T21:18:42.217Z,15.70
2023-03-18T21:21:31.394Z,15.50
2023-03-18T21:24:22.945Z,15.60
2023-03-18T21:27:15.361Z,15.40
2023-03-18T21:30:04.961Z,15.40
2023-03-18T21:32:51.244Z,15.60
2023-03-18T21:35:37.349Z,15.60
2023-03-18T21:38:25.855Z,15.50
2023-03-18T21:41:17.839Z,15.50
2023-03-18T21:44:03.583Z,15.50
2023-03-18T21:46:49.141Z,15.50
2023-03-18T21:49:34.980Z,15.60
2023-03-18T21:52:26.189Z,15.50
2023-03-18T21:55:13.944Z,15.70
2023-03-18T21:57:59.629Z,15.80
2023-03-18T22:00:45.597Z,15.60
2023-03-18T22:03:31.764Z,15.70
2023-03-18T22:06:17.712Z,15.90
2023-03-18T22:09:03.961Z,15.70
2023-03-18T22:11:50.772Z,15.80
2023-03-18T22:14:36.954Z,16.00
2023-03-18T22:17:24.212Z,16.20
2023-03-18T22:20:10.996Z,16.00
2023-03-18T22:22:56.871Z,16.00
2023-03-18T22:25:42.599Z,16.00
2023-03-18T22:28:32.210Z,16.00
2023-03-18T22:31:19.358Z,16.20
2023-03-18T22:34:05.866Z,16.10
2023-03-18T22:36:51.335Z,16.00
2023-03-18T22:39:37.194Z,16.00
2023-03-18T22:42:23.779Z,16.20
2023-03-18T22:45:18.318Z,16.30
2023-03-18T22:48:04.031Z,16.20
2023-03-18T22:50:50.132Z,16.30
2023-03-18T22:53:36.835Z,16.40
2023-03-18T22:56:22.952Z,16.60
2023-03-18T22:59:09.244Z,16.50
2023-03-18T23:01:56.164Z,16.30
2023-03-18T23:04:41.843Z,16.10
2023-03-18T23:07:28.398Z,15.90
2023-03-18T23:10:14.066Z,15.70
2023-03-18T23:13:00.015Z,15.40
2023-03-18T23:15:45.685Z,15.30
2023-03-18T23:18:32.642Z,15.20
2023-03-18T23:21:18.945Z,15.00
2023-03-18T23:24:04.602Z,15.00
2023-03-18T23:26:49.989Z,14.60
2023-03-18T23:29:35.701Z,14.60
2023-03-18T23:32:21.645Z,14.80
2023-03-18T23:35:09.461Z,14.70
2023-03-18T23:37:55.022Z,14.50
2023-03-18T23:40:40.547Z,14.70
2023-03-18T23:43:26.319Z,14.90
2023-03-18T23:46:11.854Z,14.80
2023-03-18T23:48:57.227Z,14.50
2023-03-18T23:51:44.237Z,14.50
2023-03-18T23:54:29.950Z,14.50
2023-03-18T23:57:15.635Z,14.70
